Disclaimer

Please do not use the information listed here in-flight or in-navigation, as they are not provided to us by the airports but are provided by volunteers, so they might be outdated.

Search


Regions


Airport information page

Radio informations:
Tower (TWR) - 118.6 MHz
PRECISION - 133.7 MHz
Approach (APP) - 118.6 MHz

Airport informations:
Latitude: 46° 31' 19.01" N
Longitude: 026° 54' 37.00" E
Elevation: 607 feet - 185 meters
Operating hours: Remarks
Operating agency: Military-civil joint use airport
Timezone: UTC+2(+3DT)
Fuel: N/A

Runway information:
16/34 - 8203 x 262 feet< - >2500 x 80 meters

Recent METARs:
LRBC 160700Z 35015KT 9999 FEW015 02/M01 Q1032 R16/19//95
LRBC 160730Z 34014KT 9999 FEW015 02/M02 Q1032 R16/19//95
LRBC 160800Z 35016KT 9999 FEW015 03/M02 Q1032 R16/19//95

Airport on the map: